Mc Daniels, Kentucky
Current Conditions -  °F | °C
As of 11:58 AM on Saturday 25 Oct 2014 (Local Time) from KFTK Reporting Station
Overcast Overcast  
Wind Chill: 68°   Ceiling: 2100
Heat Index: 68°   Visibility: 10mi
Dew Point: 57°   Wind: 8mph
Humidity: 68%   Direction: 250°WSW
Pressure: 30.01"   Gusts: NA
Location:  37.6134°N, 86.4706°W
Report Text: KFTK 251658Z AUTO 25007KT 10SM OVC021 20/14 A3001 RMK AO2 SLP164 T02000140
Loading
Personal Weather Stations






























Interactive Weather Map
Tropical Storm Tracking
New forecast layout! Learn more

10-Day Weather Forecast

Advertisements
Track Severe Weather on mobile